Strausstown, PA (19559)

2:05 PM EDT on September 02, 2015 (GMT -0400)
Naftzingertown | | Change Station
CLOSE
Current Station
Personal Weather Station
Location: Mohrsville, PA
Elevation: 545 ft
Nearby Weather Stations

Elev 545 ft 40.51 °N, 76.08 °W | Updated 3 minutes ago

Clear
Clear
88.5 °F
Feels Like 92 °F
N
5.8
Wind Variable Wind from NNE

Today
High -- | Low -- °F
--% Chance of Precip.
Yesterday
High -- | Low -- °F
Precip. -- in
6:32 AM 7:35 PM
Waning Gibbous, 78% visible
Pressure 29.98 in
Visibility 10.0 miles
Clouds Few 5200 ft
Heat Index 92 °F
Dew Point 68 °F
Humidity 50%
Rainfall 0.00 in
Snow Depth Not available.
UV 8 out of 12
Pollen 9.90 out of 12
Air Quality Not available.
Flu Activity Not available.
METAR KRDG 021754Z VRB04KT 10SM FEW052 32/18 A2997 RMK AO2 SLP151 T03170183 10317 20206 58018
Pressure 29.98 in
Visibility 10.0 miles
Clouds Few 5200 ft
Heat Index 92 °F
Dew Point 68 °F
Humidity 50%
Rainfall 0.00 in
Snow Depth Not available.
UV 8 out of 12
Pollen 9.90 out of 12
Air Quality Not available.
Flu Activity Not available.
METAR KRDG 021754Z VRB04KT 10SM FEW052 32/18 A2997 RMK AO2 SLP151 T03170183 10317 20206 58018

10-Day Weather Forecast

×

Almanac

Astronomy

Sep. 02, 2015 Rise Set
Actual Time
Civil Twilight
Nautical Twilight
Astronomical Twilight
Moon
Length of Visible Light
Length of Day
Tomorrow will be .
, % of the Moon is Illuminated

Today's Extremes

State Highs State Lows

Community

WunderPhotos

Upload Photos

1,851,789 photos uploaded!

WunderBlogs® & News

Nearby

Air Quality

  Air Quality AQ Index Pollutant
Not available.

Snow Depth

Station Depth Elevation

Earthquake Activity

City Distance Mag. Time & Date
Minimum magnitude displayed is 2.5.

Coastal Water Temperatures

Place Temperature

Stations

Nearby Weather Stations

Station Location Temp. Windchill Dew Point Humidity Wind Precip. Elev Updated Type